Flight Track Log - Related Links

Times and Time Zones

All times are in EDT time to prevent confusion due to time zone crossing. See the UAL4422 flight status page for this flight to view local times or setup timezone preferences in your user account.

Time Position Orientation Groundspeed Altitude Reporting Facility
EDT Latitude Longitude Course Direction KTS MPH feet Rate Location/Type
Tue 04:15:41 PM 29.9617 -95.3436 228° Southwest 153 176 700  Level Houston Center
Tue 04:17:01 PM 29.9089 -95.4103 228° Southwest 266 306 3,000 1,608 Climbing Houston Center
Tue 04:17:18 PM 29.9053 -95.4169 238° Southwest 247 284 3,300 1,200 Climbing Houston Center
Tue 04:17:56 PM 29.8722 -95.4675 233° Southwest 256 295 4,100 1,161 Climbing Houston Center
Tue 04:18:20 PM 29.8650 -95.4792 234° Southwest 245 282 4,500 2,060 Climbing Houston Center
Tue 04:19:03 PM 29.8306 -95.5400 237° Southwest 253 291 6,400 2,419 Climbing Houston Center
Tue 04:19:22 PM 29.8306 -95.5661 270° West 265 305 7,000 2,148 Climbing Houston Center
Tue 04:20:24 PM 29.8611 -95.6469 294° West 270 311 9,300 1,824 Climbing Houston Center
Tue 04:21:27 PM 29.8942 -95.7297 295° West 282 325 10,800 1,248 Climbing Houston Center
Tue 04:22:29 PM 29.9314 -95.8217 295° West 314 361 11,900 1,113 Climbing Houston Center
Tue 04:23:31 PM 29.9711 -95.9225 294° West 341 392 13,100 1,403 Climbing Houston Center
Tue 04:24:33 PM 30.0186 -96.0397 295° West 350 403 14,800 1,452 Climbing Houston Center
Tue 04:25:35 PM 30.0589 -96.1425 294° West 352 405 16,100 1,355 Climbing Houston Center
Tue 04:26:37 PM 30.0994 -96.2456 294° West 352 405 17,600 1,355 Climbing Houston Center
Tue 04:27:39 PM 30.1161 -96.3556 280° West 346 398 18,900 1,306 Climbing Houston Center
Tue 04:28:41 PM 30.1356 -96.4878 280° West 354 407 20,300 1,344 Climbing Houston Center
Tue 04:29:44 PM 30.1542 -96.6031 281° West 360 414 21,700 1,200 Climbing Houston Center
Tue 04:30:46 PM 30.1714 -96.7214 280° West 366 421 22,800 1,016 Climbing Houston Center
Tue 04:31:48 PM 30.1892 -96.8414 280° West 373 429 23,800 1,016 Climbing Houston Center
Tue 04:32:50 PM 30.2078 -96.9611 280° West 374 430 24,900 1,016 Climbing Houston Center
Tue 04:33:52 PM 30.2256 -97.0853 279° West 382 440 25,900 1,210 Climbing Houston Center
Tue 04:34:54 PM 30.2472 -97.2289 280° West 382 440 27,400 1,452 Climbing Houston Center
Tue 04:35:56 PM 30.2633 -97.3464 279° West 368 423 28,900 1,440 Climbing Houston Center
Tue 04:36:59 PM 30.2803 -97.4606 280° West 359 413 30,400 1,392 Climbing Houston Center
Tue 04:38:01 PM 30.2967 -97.5728 280° West 352 405 31,800 774 Climbing Houston Center
Tue 04:39:03 PM 30.3136 -97.6883 280° West 360 414 32,000 97 Climbing Houston Center
Tue 04:40:05 PM 30.3303 -97.8131 279° West 384 442 32,000  Level Houston Center
Tue 04:41:07 PM 30.3486 -97.9433 279° West 400 460 32,000  Level Houston Center
Tue 04:42:09 PM 30.3656 -98.0706 279° West 397 457 32,000  Level Houston Center
Tue 04:43:11 PM 30.4208 -98.2167 294° West 417 480 32,000  Level Houston Center
Tue 04:44:14 PM 30.4744 -98.3386 297° West 420 483 32,000  Level Houston Center
Tue 04:45:16 PM 30.5278 -98.4603 297° West 420 483 32,000  Level Houston Center
Tue 04:46:18 PM 30.5811 -98.5808 297° West 418 481 32,000  Level Houston Center
Tue 04:47:20 PM 30.6339 -98.7022 297° West 417 480 32,000  Level Houston Center
Tue 04:48:22 PM 30.6864 -98.8242 297° West 417 480 32,000  Level Houston Center
Tue 04:49:24 PM 30.7392 -98.9475 296° West 422 486 32,000  Level Houston Center
Tue 04:50:26 PM 30.8022 -99.0933 297° West 428 493 32,000  Level Houston Center
Tue 04:51:29 PM 30.8519 -99.2094 297° West 432 497 32,000  Level Houston Center
Tue 04:52:31 PM 30.9056 -99.3342 297° West 433 498 32,000  Level Houston Center
Tue 04:53:33 PM 30.9583 -99.4569 297° West 428 493 32,000  Level Houston Center
Tue 04:54:35 PM 31.0189 -99.6031 296° West 421 484 32,000  Level Houston Center
Tue 04:55:37 PM 31.0708 -99.7228 297° West 417 480 32,000  Level Houston Center
Tue 04:56:39 PM 31.1217 -99.8444 296° West 418 481 32,000  Level Houston Center
Tue 04:57:41 PM 31.1731 -99.9681 296° West 424 488 32,000 -48 Level Houston Center
Tue 04:58:44 PM 31.2250 -100.0914 296° West 424 488 31,900 -48 Descending Houston Center
Tue 04:59:46 PM 31.2603 -100.2431 285° West 407 468 31,900 -968 Level Houston Center
Tue 05:00:48 PM 31.2728 -100.3719 277° West 402 463 29,900 -1,870 Descending Houston Center
Tue 05:01:03 PM 31.2758 -100.4006 277° West 404 465 29,500 -1,920 Descending Fort Worth Center
Tue 05:02:03 PM 31.3208 -100.5233 293° West 404 465 27,500 -1,750 Descending Fort Worth Center
Tue 05:03:03 PM 31.3681 -100.6467 294° West 410 472 26,000 -800 Descending Fort Worth Center
Tue 05:04:03 PM 31.4169 -100.7725 295° West 415 478 25,900 -700 Descending Fort Worth Center
Tue 05:05:03 PM 31.4656 -100.8986 294° West 422 486 24,600 -1,000 Descending Fort Worth Center
Tue 05:06:03 PM 31.5122 -101.0219 294° West 422 486 23,900 -1,550 Descending Fort Worth Center
Tue 05:07:03 PM 31.5547 -101.1431 292° West 422 486 21,500 -2,450 Descending Fort Worth Center
Tue 05:08:03 PM 31.6031 -101.2669 295° West 417 480 19,000 -2,550 Descending Fort Worth Center
Tue 05:09:03 PM 31.6453 -101.3836 293° West 411 473 16,400 -2,550 Descending Fort Worth Center
Tue 05:10:03 PM 31.6856 -101.4950 293° West 398 458 13,900 -2,400 Descending Fort Worth Center
Tue 05:11:03 PM 31.7533 -101.5958 308° West 387 445 11,600 -1,600 Descending Fort Worth Center
Tue 05:12:03 PM 31.8111 -101.6792 309° West 364 419 10,700 -1,100 Descending Fort Worth Center
Tue 05:13:03 PM 31.8647 -101.7550 310° West 329 379 9,400 -1,400 Descending Fort Worth Center
Tue 05:14:03 PM 31.9164 -101.8283 310° West 302 348 7,900 -1,400 Descending Fort Worth Center
Tue 05:15:03 PM 31.9600 -101.8992 306° West 282 325 6,600 -1,100 Descending Fort Worth Center
Tue 05:16:03 PM 32.0056 -101.9675 308° West 275 316 5,700 -800 Descending Fort Worth Center
Tue 05:17:03 PM 32.0344 -102.0325 298° West 250 288 5,000 -350 Descending Fort Worth Center
Tue 05:18:03 PM 32.0464 -102.1017 282° West 228 262 5,000 -150 Level Fort Worth Center
Tue 05:19:03 PM 32.0586 -102.1686 282° West 223 257 4,700 -300 Descending Fort Worth Center

Login

Don't have an account? Register now (free) for customized features, flight alerts, and more!